Time;durP1;ratioP1;P1;durP2;ratioP2;P2;SDS_P1;SDS_P2;PMS_P1;PMS_P2;Temp;Humidity;BMP_temperature;BMP_pressure;BME280_temperature;BME280_humidity;BME280_pressure;Samples;Min_cycle;Max_cycle;Signal;HPM_P1;HPM_P2
2023/10/25 00:01:01;;;;;;;1.97;1.00;;;10.20;99.90;;;;;;5075333;28;20437;-84
2023/10/25 00:03:28;;;;;;;2.60;1.10;;;10.10;99.90;;;;;;5074895;28;21004;-84
2023/10/25 00:05:54;;;;;;;1.97;1.10;;;10.10;99.90;;;;;;5074884;28;20456;-84
2023/10/25 00:08:21;;;;;;;1.37;1.20;;;10.10;99.90;;;;;;5075241;28;20444;-85
2023/10/25 00:10:48;;;;;;;0.50;0.50;;;10.00;99.90;;;;;;5075046;28;20495;-85
2023/10/25 00:13:16;;;;;;;3.67;0.93;;;10.10;99.90;;;;;;5075029;28;20457;-84
2023/10/25 00:15:43;;;;;;;1.77;0.93;;;10.00;99.90;;;;;;5074948;28;20444;-84
2023/10/25 00:18:10;;;;;;;1.07;1.07;;;9.90;99.90;;;;;;5075552;28;20476;-85
2023/10/25 00:20:36;;;;;;;1.73;0.93;;;9.90;99.90;;;;;;5074867;28;20445;-84
2023/10/25 00:23:03;;;;;;;1.53;1.40;;;10.00;99.90;;;;;;5074811;28;20519;-85
2023/10/25 00:25:30;;;;;;;2.13;1.37;;;10.00;99.90;;;;;;5074797;28;20444;-85
2023/10/25 00:27:57;;;;;;;1.47;0.87;;;10.00;99.90;;;;;;5074744;28;20452;-85
2023/10/25 00:30:25;;;;;;;1.30;1.30;;;10.00;99.90;;;;;;5074890;28;20468;-85
2023/10/25 00:32:52;;;;;;;0.93;0.80;;;10.00;99.90;;;;;;5074261;28;21005;-84
2023/10/25 00:35:18;;;;;;;0.60;0.60;;;10.00;99.90;;;;;;5085749;28;20444;-85
2023/10/25 00:37:45;;;;;;;1.00;0.70;;;10.30;99.90;;;;;;5074292;28;20447;-85
2023/10/25 00:40:12;;;;;;;0.83;0.83;;;10.00;99.90;;;;;;5074564;28;20448;-85
2023/10/25 00:42:39;;;;;;;0.87;0.60;;;10.00;99.90;;;;;;5074395;28;20433;-85
2023/10/25 00:45:07;;;;;;;0.80;0.80;;;10.00;99.90;;;;;;5074257;28;20827;-84
2023/10/25 00:47:35;;;;;;;1.33;0.60;;;10.00;99.90;;;;;;5074386;28;20445;-84
2023/10/25 00:50:02;;;;;;;0.80;0.80;;;10.00;99.90;;;;;;5074095;28;20789;-84
2023/10/25 00:52:30;;;;;;;1.47;1.13;;;10.10;99.90;;;;;;5074303;28;20469;-84
2023/10/25 00:54:57;;;;;;;0.60;0.53;;;10.00;99.90;;;;;;5074245;28;20444;-84
2023/10/25 00:57:24;;;;;;;1.70;0.97;;;10.00;99.90;;;;;;5074180;28;20451;-85
2023/10/25 00:59:52;;;;;;;1.23;1.13;;;10.00;99.90;;;;;;5074081;28;20457;-85
2023/10/25 01:02:19;;;;;;;2.83;0.87;;;10.00;99.90;;;;;;5074052;28;20436;-85
2023/10/25 01:04:47;;;;;;;0.70;0.63;;;9.90;99.90;;;;;;5073976;28;20475;-85
2023/10/25 01:07:13;;;;;;;0.83;0.83;;;9.90;99.90;;;;;;5073652;28;20906;-84
2023/10/25 01:09:40;;;;;;;0.83;0.70;;;9.90;99.90;;;;;;5073651;28;20452;-85
2023/10/25 01:12:08;;;;;;;2.27;0.80;;;10.10;99.90;;;;;;5073832;28;20495;-84
2023/10/25 01:14:35;;;;;;;0.70;0.70;;;10.00;99.90;;;;;;5073454;28;21015;-85
2023/10/25 01:17:01;;;;;;;1.40;0.80;;;10.00;99.90;;;;;;5073830;28;20451;-85
2023/10/25 01:19:28;;;;;;;1.20;1.20;;;10.00;99.90;;;;;;5073806;28;20503;-85
2023/10/25 01:21:56;;;;;;;1.77;1.03;;;9.90;99.90;;;;;;5073495;28;20444;-84
2023/10/25 01:24:25;;;;;;;1.40;1.20;;;9.90;99.90;;;;;;5073669;28;20475;-84
2023/10/25 01:26:51;;;;;;;2.47;1.37;;;9.90;99.90;;;;;;5073697;28;20455;-84
2023/10/25 01:29:18;;;;;;;2.40;0.80;;;10.00;99.90;;;;;;5072821;28;20861;-85
2023/10/25 01:31:45;;;;;;;0.80;0.73;;;9.90;99.90;;;;;;5073195;28;20480;-84
2023/10/25 01:34:12;;;;;;;0.80;0.80;;;9.90;99.90;;;;;;5073535;28;20468;-84
2023/10/25 01:36:38;;;;;;;1.43;0.90;;;9.80;99.90;;;;;;5073228;28;20961;-85
2023/10/25 01:39:06;;;;;;;0.90;0.70;;;9.80;99.90;;;;;;5073520;28;20451;-84
2023/10/25 01:41:34;;;;;;;0.60;0.60;;;9.80;99.90;;;;;;5073526;28;20494;-85
2023/10/25 01:44:00;;;;;;;0.57;0.57;;;9.70;99.90;;;;;;5073406;28;20461;-85
2023/10/25 01:46:27;;;;;;;2.60;1.10;;;9.70;99.90;;;;;;5073273;28;20432;-85
2023/10/25 01:48:54;;;;;;;1.00;0.70;;;9.70;99.90;;;;;;5074067;28;20946;-85
2023/10/25 01:51:20;;;;;;;0.90;0.83;;;9.70;99.90;;;;;;5072801;28;20503;-83
2023/10/25 01:53:47;;;;;;;1.40;0.60;;;9.80;99.90;;;;;;5073403;28;20487;-85
2023/10/25 01:56:14;;;;;;;0.67;0.67;;;9.80;99.90;;;;;;5073013;28;20452;-84
2023/10/25 01:58:42;;;;;;;1.13;1.03;;;9.80;99.90;;;;;;5073361;28;20459;-85
2023/10/25 02:01:09;;;;;;;0.70;0.70;;;9.80;99.90;;;;;;5073036;28;20433;-84
2023/10/25 02:03:35;;;;;;;1.33;1.10;;;9.80;99.90;;;;;;5073184;28;20460;-85
2023/10/25 02:06:11;;;;;;;1.53;0.90;;;9.70;99.90;;;;;;5073206;28;20440;-85
2023/10/25 02:08:38;;;;;;;1.10;0.80;;;9.70;99.90;;;;;;5073303;28;20482;-84
2023/10/25 02:11:05;;;;;;;0.87;0.70;;;9.80;99.90;;;;;;5072831;28;20881;-84
2023/10/25 02:13:32;;;;;;;1.33;1.23;;;9.80;99.90;;;;;;5073071;28;20464;-84
2023/10/25 02:16:00;;;;;;;3.27;0.70;;;9.70;99.90;;;;;;5073155;28;20468;-84
2023/10/25 02:18:27;;;;;;;2.27;1.50;;;9.70;99.90;;;;;;5073127;28;20441;-84
2023/10/25 02:20:53;;;;;;;0.77;0.77;;;9.80;99.90;;;;;;5073100;28;20445;-85
2023/10/25 02:23:20;;;;;;;2.20;0.80;;;9.90;99.90;;;;;;5073028;28;20867;-84
2023/10/25 02:25:47;;;;;;;0.60;0.60;;;9.80;99.90;;;;;;5072917;28;20429;-85
2023/10/25 02:28:13;;;;;;;0.60;0.60;;;9.80;99.90;;;;;;5073060;28;20444;-85
2023/10/25 02:30:40;;;;;;;1.10;0.67;;;9.90;99.90;;;;;;5073128;28;20468;-84
2023/10/25 02:33:08;;;;;;;1.53;0.70;;;9.80;99.90;;;;;;5072858;28;20858;-84
2023/10/25 02:35:35;;;;;;;1.23;0.57;;;10.20;99.90;;;;;;5072997;28;20808;-85
2023/10/25 02:38:02;;;;;;;2.33;0.87;;;9.80;99.90;;;;;;5072949;28;20456;-85
2023/10/25 02:40:28;;;;;;;0.60;0.60;;;9.80;99.90;;;;;;5072901;28;20448;-84
2023/10/25 02:42:55;;;;;;;0.87;0.83;;;9.80;99.90;;;;;;5076686;28;20457;-85
2023/10/25 02:45:22;;;;;;;0.67;0.67;;;9.80;99.90;;;;;;5076656;28;20456;-84
2023/10/25 02:47:49;;;;;;;0.90;0.90;;;9.80;99.90;;;;;;5076660;28;20813;-85
2023/10/25 02:50:17;;;;;;;1.60;0.77;;;9.80;99.90;;;;;;5076345;28;20483;-84
2023/10/25 02:52:48;;;;;;;0.60;0.60;;;9.80;99.90;;;;;;5076459;28;20485;-84
2023/10/25 02:55:15;;;;;;;0.70;0.70;;;9.70;99.90;;;;;;5076565;28;20516;-84
2023/10/25 02:57:42;;;;;;;1.03;0.73;;;9.70;99.90;;;;;;5076448;28;20830;-85
2023/10/25 03:00:10;;;;;;;0.70;0.60;;;9.70;99.90;;;;;;5076448;28;20448;-84
2023/10/25 03:02:36;;;;;;;0.70;0.70;;;9.70;99.90;;;;;;5076275;28;20441;-84
2023/10/25 03:05:03;;;;;;;0.77;0.60;;;9.70;99.90;;;;;;5076321;28;20448;-84
2023/10/25 03:07:31;;;;;;;1.07;0.57;;;9.70;99.90;;;;;;5076324;28;20451;-84
2023/10/25 03:09:58;;;;;;;0.70;0.70;;;9.70;99.90;;;;;;5076290;28;20440;-85
2023/10/25 03:12:25;;;;;;;0.60;0.60;;;9.70;99.90;;;;;;5075906;28;20476;-84
2023/10/25 03:14:52;;;;;;;0.83;0.50;;;9.70;99.90;;;;;;5076034;28;20476;-84
2023/10/25 03:17:18;;;;;;;0.60;0.60;;;9.70;99.90;;;;;;5076144;28;20440;-85
2023/10/25 03:19:45;;;;;;;1.60;0.63;;;9.70;99.90;;;;;;5076087;28;20445;-84
2023/10/25 03:22:12;;;;;;;1.47;0.80;;;9.60;99.90;;;;;;5076027;28;20445;-84
2023/10/25 03:24:40;;;;;;;0.77;0.60;;;9.60;99.90;;;;;;5075964;28;20829;-85
2023/10/25 03:27:07;;;;;;;0.50;0.50;;;9.60;99.90;;;;;;5075622;28;20950;-85
2023/10/25 03:29:36;;;;;;;0.40;0.40;;;9.60;99.90;;;;;;5076544;28;20933;-83
2023/10/25 03:32:03;;;;;;;1.17;1.13;;;9.60;99.90;;;;;;5076008;28;20483;-84
2023/10/25 03:34:29;;;;;;;0.70;0.63;;;9.70;99.90;;;;;;5075407;28;20476;-85
2023/10/25 03:36:56;;;;;;;0.60;0.60;;;9.60;99.90;;;;;;5075794;28;20445;-85
2023/10/25 03:39:23;;;;;;;0.50;0.50;;;9.60;99.90;;;;;;5075820;28;20515;-85
2023/10/25 03:41:51;;;;;;;1.27;1.00;;;9.60;99.90;;;;;;5075370;28;20448;-85
2023/10/25 03:44:18;;;;;;;2.30;1.07;;;9.50;99.90;;;;;;5075641;28;20494;-85
2023/10/25 03:46:45;;;;;;;1.50;0.90;;;9.60;99.90;;;;;;5075540;28;20443;-85
2023/10/25 03:49:12;;;;;;;0.83;0.50;;;9.60;99.90;;;;;;5075487;28;20449;-85
2023/10/25 03:51:38;;;;;;;0.90;0.70;;;9.50;99.90;;;;;;5074457;28;20483;-85
2023/10/25 03:54:05;;;;;;;2.00;0.90;;;9.50;99.90;;;;;;5075079;28;20474;-84
2023/10/25 03:56:32;;;;;;;0.80;0.80;;;9.40;99.90;;;;;;5075370;28;20445;-85
2023/10/25 03:59:00;;;;;;;0.87;0.87;;;9.40;99.90;;;;;;5075363;28;20441;-85
2023/10/25 04:01:27;;;;;;;0.80;0.80;;;9.40;99.90;;;;;;5075346;28;20451;-85
2023/10/25 04:03:53;;;;;;;0.90;0.50;;;9.50;99.90;;;;;;5075246;28;20467;-85
2023/10/25 04:06:20;;;;;;;0.60;0.60;;;9.60;99.90;;;;;;5075154;28;20451;-85
2023/10/25 04:08:47;;;;;;;0.70;0.60;;;9.60;99.90;;;;;;5075182;28;20448;-84
2023/10/25 04:11:14;;;;;;;1.33;0.77;;;9.60;99.90;;;;;;5075720;28;20445;-85
2023/10/25 04:13:40;;;;;;;0.70;0.70;;;9.60;99.90;;;;;;5074994;28;20492;-85
2023/10/25 04:16:09;;;;;;;0.70;0.70;;;9.60;99.90;;;;;;5075032;28;20436;-84
2023/10/25 04:18:37;;;;;;;0.70;0.70;;;9.60;99.90;;;;;;5074993;28;20445;-85
2023/10/25 04:21:08;;;;;;;1.07;0.70;;;9.50;99.90;;;;;;5075062;28;20805;-85
2023/10/25 04:23:35;;;;;;;0.70;0.70;;;9.40;99.90;;;;;;5074978;28;20985;-85
2023/10/25 04:26:06;;;;;;;0.77;0.77;;;9.40;99.90;;;;;;5074958;28;20452;-85
2023/10/25 04:28:33;;;;;;;0.60;0.60;;;9.40;99.90;;;;;;5074575;28;20445;-85
2023/10/25 04:31:00;;;;;;;1.00;0.63;;;9.30;99.90;;;;;;5074853;28;20445;-84
2023/10/25 04:33:28;;;;;;;0.67;0.67;;;9.30;99.90;;;;;;5074681;28;20499;-85
2023/10/25 04:35:55;;;;;;;0.50;0.50;;;9.30;99.90;;;;;;5074867;28;20447;-85
2023/10/25 04:38:23;;;;;;;1.10;0.70;;;9.40;99.90;;;;;;5074700;28;20445;-85
2023/10/25 04:40:50;;;;;;;0.60;0.60;;;9.20;99.90;;;;;;5074619;28;20441;-85
2023/10/25 04:43:17;;;;;;;1.53;1.00;;;9.20;99.90;;;;;;5074467;28;20472;-85
2023/10/25 04:45:43;;;;;;;1.07;0.87;;;9.20;99.90;;;;;;5074124;28;21028;-85
2023/10/25 04:48:10;;;;;;;0.90;0.73;;;9.20;99.90;;;;;;5074198;28;20448;-84
2023/10/25 04:50:39;;;;;;;0.83;0.83;;;9.10;99.90;;;;;;5073989;28;20483;-85
2023/10/25 04:53:06;;;;;;;2.20;0.60;;;9.10;99.90;;;;;;5074153;28;20492;-85
2023/10/25 04:55:34;;;;;;;0.70;0.70;;;9.10;99.90;;;;;;5074401;28;20449;-85
2023/10/25 04:58:02;;;;;;;0.67;0.57;;;9.00;99.90;;;;;;5073904;28;20574;-85
2023/10/25 05:00:31;;;;;;;0.60;0.57;;;9.00;99.90;;;;;;5073872;28;20528;-85
2023/10/25 05:02:59;;;;;;;0.40;0.40;;;9.00;99.90;;;;;;5073807;28;20469;-85
2023/10/25 05:05:25;;;;;;;1.17;0.60;;;9.00;99.90;;;;;;5073562;28;20440;-85
2023/10/25 05:07:54;;;;;;;0.70;0.60;;;9.00;99.90;;;;;;5074085;28;20449;-85
2023/10/25 05:10:21;;;;;;;0.83;0.77;;;9.00;99.90;;;;;;5074581;28;20440;-85
2023/10/25 05:12:49;;;;;;;1.10;0.80;;;8.90;99.90;;;;;;5073875;28;20487;-85
2023/10/25 05:15:17;;;;;;;2.30;0.60;;;8.90;99.90;;;;;;5074068;28;20440;-85
2023/10/25 05:17:46;;;;;;;1.33;0.77;;;8.90;99.90;;;;;;5073915;28;20793;-85
2023/10/25 05:20:14;;;;;;;1.43;0.80;;;8.90;99.90;;;;;;5073762;28;20449;-85
2023/10/25 05:22:43;;;;;;;2.00;0.90;;;8.90;99.90;;;;;;5073500;28;20955;-85
2023/10/25 05:25:12;;;;;;;0.80;0.70;;;8.90;99.90;;;;;;5073617;28;20491;-85
2023/10/25 05:27:40;;;;;;;1.30;1.20;;;8.80;99.90;;;;;;5073869;28;21066;-85
2023/10/25 05:30:09;;;;;;;1.30;0.73;;;8.80;99.90;;;;;;5073453;28;20451;-85
2023/10/25 05:32:39;;;;;;;1.03;0.70;;;8.80;99.90;;;;;;5073267;28;20993;-85
2023/10/25 05:35:07;;;;;;;1.27;1.03;;;8.80;99.90;;;;;;5073743;28;20448;-85
2023/10/25 05:37:34;;;;;;;1.03;0.90;;;8.80;99.90;;;;;;5073625;28;20960;-85
2023/10/25 05:40:02;;;;;;;0.90;0.90;;;8.80;99.90;;;;;;5073711;28;20449;-85
2023/10/25 05:42:32;;;;;;;0.83;0.80;;;8.80;99.90;;;;;;5073334;28;20802;-84
2023/10/25 05:44:59;;;;;;;1.07;0.90;;;8.90;99.90;;;;;;5073556;28;20435;-85
2023/10/25 05:47:27;;;;;;;1.13;0.90;;;8.90;99.90;;;;;;5073520;28;20817;-85
2023/10/25 05:49:54;;;;;;;1.20;1.10;;;8.80;99.90;;;;;;5072989;28;21014;-85
2023/10/25 05:52:22;;;;;;;2.13;1.93;;;8.80;99.90;;;;;;5073488;28;20433;-85
2023/10/25 05:54:49;;;;;;;0.77;0.77;;;8.80;99.90;;;;;;5073045;28;20476;-85
2023/10/25 05:57:16;;;;;;;1.00;0.90;;;8.80;99.90;;;;;;5073406;28;20453;-85
2023/10/25 05:59:45;;;;;;;0.70;0.70;;;8.80;99.90;;;;;;5073336;28;20801;-84
2023/10/25 06:02:14;;;;;;;0.50;0.50;;;8.80;99.90;;;;;;5073055;28;20437;-85
2023/10/25 06:04:42;;;;;;;1.03;0.70;;;8.80;99.90;;;;;;5073534;28;20467;-85
2023/10/25 06:07:10;;;;;;;1.00;0.70;;;8.80;99.90;;;;;;5073341;28;20456;-84
2023/10/25 06:09:38;;;;;;;1.10;0.87;;;8.80;99.90;;;;;;5073504;28;20445;-85
2023/10/25 06:12:06;;;;;;;0.50;0.50;;;8.80;99.90;;;;;;5073141;28;20437;-85
2023/10/25 06:14:33;;;;;;;0.83;0.63;;;8.80;99.90;;;;;;5073280;28;20492;-85
2023/10/25 06:17:02;;;;;;;1.23;0.43;;;8.90;99.90;;;;;;5077477;28;20441;-85
2023/10/25 06:19:29;;;;;;;0.77;0.63;;;8.90;99.90;;;;;;5077365;28;20811;-85
2023/10/25 06:21:56;;;;;;;0.90;0.60;;;8.90;99.90;;;;;;5077514;28;20455;-84
2023/10/25 06:24:24;;;;;;;0.70;0.70;;;8.90;99.90;;;;;;5077594;28;20526;-85
2023/10/25 06:26:50;;;;;;;0.60;0.60;;;8.90;99.90;;;;;;5077414;28;20453;-85
2023/10/25 06:29:17;;;;;;;1.17;0.73;;;8.90;99.90;;;;;;5077277;28;20445;-84
2023/10/25 06:31:50;;;;;;;2.43;0.73;;;8.90;99.90;;;;;;5077261;28;20441;-85
2023/10/25 06:34:18;;;;;;;1.20;1.03;;;8.90;99.90;;;;;;5076937;28;20495;-84
2023/10/25 06:36:46;;;;;;;1.03;0.60;;;8.90;99.90;;;;;;5076983;28;20441;-84
2023/10/25 06:39:14;;;;;;;0.70;0.67;;;8.90;99.90;;;;;;5076762;28;20432;-84
2023/10/25 06:41:41;;;;;;;2.50;0.53;;;8.90;99.90;;;;;;5077212;28;20941;-84
2023/10/25 06:44:09;;;;;;;0.63;0.50;;;8.90;99.90;;;;;;5076794;28;20506;-84
2023/10/25 06:46:36;;;;;;;0.90;0.70;;;9.00;99.90;;;;;;5076793;28;20444;-84
2023/10/25 06:49:04;;;;;;;0.77;0.60;;;9.00;99.90;;;;;;5076863;28;20444;-84
2023/10/25 06:51:32;;;;;;;0.83;0.40;;;9.00;99.90;;;;;;5076218;28;20837;-84
2023/10/25 06:54:00;;;;;;;3.27;1.20;;;8.90;99.90;;;;;;5076477;28;20852;-84
2023/10/25 06:56:29;;;;;;;2.00;0.90;;;9.00;99.90;;;;;;5076544;28;20428;-84
2023/10/25 06:58:56;;;;;;;1.07;1.07;;;9.10;99.90;;;;;;5076493;28;20435;-84
2023/10/25 07:01:26;;;;;;;1.70;0.50;;;9.10;99.90;;;;;;5076192;28;20429;-84
2023/10/25 07:03:57;;;;;;;0.53;0.50;;;9.20;99.90;;;;;;5076351;28;20492;-84
2023/10/25 07:06:24;;;;;;;1.17;0.83;;;9.20;99.90;;;;;;5076429;28;20429;-84
2023/10/25 07:08:53;;;;;;;1.70;0.60;;;9.30;99.90;;;;;;5076325;28;20452;-84
2023/10/25 07:11:19;;;;;;;0.60;0.60;;;9.30;99.90;;;;;;5076511;28;20460;-84
2023/10/25 07:13:46;;;;;;;2.30;0.97;;;9.40;99.90;;;;;;5076309;28;20488;-84
2023/10/25 07:16:13;;;;;;;1.10;1.00;;;9.40;99.90;;;;;;5075833;28;20471;-83
2023/10/25 07:18:40;;;;;;;1.00;0.83;;;9.40;99.90;;;;;;5076203;28;20454;-85
2023/10/25 07:21:08;;;;;;;1.17;0.70;;;9.50;99.90;;;;;;5076117;28;20552;-84
2023/10/25 07:23:35;;;;;;;0.93;0.80;;;9.60;99.90;;;;;;5075966;28;20457;-84
2023/10/25 07:26:03;;;;;;;2.47;1.07;;;9.60;99.90;;;;;;5075729;28;20456;-84
2023/10/25 07:28:30;;;;;;;2.17;1.20;;;9.70;99.90;;;;;;5075390;28;20455;-84
2023/10/25 07:30:56;;;;;;;2.50;1.20;;;9.80;99.90;;;;;;5075898;28;20444;-84
2023/10/25 07:33:24;;;;;;;2.33;1.00;;;10.00;99.90;;;;;;5075770;28;20866;-84
2023/10/25 07:35:50;;;;;;;0.83;0.67;;;10.00;99.90;;;;;;5075766;28;20449;-84
2023/10/25 07:38:17;;;;;;;1.13;0.70;;;10.20;99.90;;;;;;5075803;28;20806;-84
2023/10/25 07:40:44;;;;;;;0.90;0.80;;;10.30;99.90;;;;;;5075714;28;20445;-84
2023/10/25 07:43:12;;;;;;;3.10;0.83;;;10.50;99.90;;;;;;5075699;28;20472;-84
2023/10/25 07:45:38;;;;;;;1.33;0.93;;;10.60;99.90;;;;;;5075376;28;20930;-84
2023/10/25 07:48:06;;;;;;;0.80;0.70;;;10.50;99.90;;;;;;5075668;28;20524;-84
2023/10/25 07:50:34;;;;;;;0.80;0.80;;;10.50;99.90;;;;;;5075522;28;20477;-85
2023/10/25 07:53:01;;;;;;;1.67;1.33;;;10.50;99.90;;;;;;5075393;28;20533;-83
2023/10/25 07:55:28;;;;;;;0.80;0.80;;;10.50;99.90;;;;;;5075459;28;20449;-84
2023/10/25 07:57:55;;;;;;;0.90;0.70;;;10.40;99.90;;;;;;5075386;28;20445;-84
2023/10/25 08:00:23;;;;;;;1.13;0.60;;;10.40;99.90;;;;;;5075250;28;20941;-84
2023/10/25 08:02:50;;;;;;;1.50;0.93;;;10.30;99.90;;;;;;5074940;28;20453;-84
2023/10/25 08:05:17;;;;;;;1.87;1.20;;;10.40;99.90;;;;;;5075281;28;20471;-84
2023/10/25 08:07:45;;;;;;;0.70;0.70;;;10.50;99.90;;;;;;5075240;28;20437;-84
2023/10/25 08:10:12;;;;;;;1.17;0.80;;;10.70;99.90;;;;;;5075282;28;20444;-84
2023/10/25 08:12:39;;;;;;;2.07;1.20;;;10.80;99.90;;;;;;5074811;28;20445;-84
2023/10/25 08:15:07;;;;;;;1.27;1.17;;;11.00;99.90;;;;;;5074990;28;20476;-84
2023/10/25 08:17:35;;;;;;;1.33;0.70;;;11.20;99.90;;;;;;5075074;28;20473;-84
2023/10/25 08:20:01;;;;;;;1.20;0.90;;;11.20;99.90;;;;;;5074990;28;20448;-83
2023/10/25 08:22:28;;;;;;;1.00;1.00;;;11.40;99.90;;;;;;5074904;28;20452;-84
2023/10/25 08:24:55;;;;;;;0.90;0.90;;;11.50;99.90;;;;;;5074876;28;20460;-84
2023/10/25 08:27:22;;;;;;;0.80;0.70;;;11.50;99.90;;;;;;5074874;28;20445;-84
2023/10/25 08:29:48;;;;;;;2.83;1.43;;;11.40;99.90;;;;;;5074493;28;21068;-84
2023/10/25 08:32:15;;;;;;;1.43;0.80;;;11.50;99.90;;;;;;5074740;28;20452;-84
2023/10/25 08:34:47;;;;;;;2.63;1.10;;;11.50;99.90;;;;;;5074293;28;20481;-84
2023/10/25 08:37:14;;;;;;;3.33;0.93;;;11.50;99.90;;;;;;5074313;28;20457;-82
2023/10/25 08:39:41;;;;;;;0.70;0.60;;;11.50;99.90;;;;;;5074608;28;20445;-85
2023/10/25 08:42:12;;;;;;;1.33;0.87;;;11.50;99.90;;;;;;5074566;28;20792;-84
2023/10/25 08:44:40;;;;;;;1.73;1.20;;;11.40;99.90;;;;;;5074423;28;20461;-84
2023/10/25 08:47:09;;;;;;;1.23;1.07;;;11.40;99.90;;;;;;5074447;28;20480;-85
2023/10/25 08:49:37;;;;;;;0.73;0.73;;;11.40;99.90;;;;;;5074340;28;20455;-85
2023/10/25 08:52:09;;;;;;;1.90;1.03;;;11.30;99.90;;;;;;5074036;28;20472;-85
2023/10/25 08:54:36;;;;;;;1.73;0.70;;;11.20;99.90;;;;;;5073990;28;20487;-84
2023/10/25 08:57:05;;;;;;;1.40;1.20;;;11.20;99.90;;;;;;5074295;28;20522;-85
2023/10/25 08:59:40;;;;;;;1.43;0.90;;;11.10;99.90;;;;;;5080251;28;20452;-85
2023/10/25 09:02:08;;;;;;;1.10;0.93;;;11.10;99.90;;;;;;5076884;28;20437;-84
2023/10/25 09:04:34;;;;;;;2.37;0.97;;;11.00;99.90;;;;;;5074017;28;20476;-84
2023/10/25 09:07:01;;;;;;;1.10;0.70;;;11.00;99.90;;;;;;5074041;28;20444;-84
2023/10/25 09:09:40;;;;;;;1.00;0.70;;;11.00;99.90;;;;;;5074045;28;20448;-84
2023/10/25 09:12:19;;;;;;;1.67;0.90;;;11.00;99.90;;;;;;5073989;28;20441;-84
2023/10/25 09:14:47;;;;;;;2.40;0.90;;;10.80;99.90;;;;;;5073810;28;20487;-85
2023/10/25 09:17:14;;;;;;;0.50;0.50;;;10.90;99.90;;;;;;5073866;28;20441;-84
2023/10/25 09:19:43;;;;;;;0.60;0.60;;;10.80;99.90;;;;;;5073861;28;20441;-84
2023/10/25 09:22:21;;;;;;;1.07;1.00;;;10.80;99.90;;;;;;5073626;28;20429;-85
2023/10/25 09:24:50;;;;;;;1.20;0.80;;;10.70;99.90;;;;;;5073795;28;20461;-82
2023/10/25 09:27:18;;;;;;;0.80;0.80;;;10.60;99.90;;;;;;5073769;28;20512;-81
2023/10/25 09:29:44;;;;;;;0.83;0.83;;;10.60;99.90;;;;;;5073435;28;20429;-81
2023/10/25 09:32:11;;;;;;;0.73;0.60;;;11.10;99.90;;;;;;5073656;28;20482;-81
2023/10/25 09:34:39;;;;;;;0.90;0.70;;;10.70;99.90;;;;;;5073502;28;20993;-82
2023/10/25 09:37:07;;;;;;;1.50;0.90;;;10.80;99.90;;;;;;5073593;28;20808;-82
2023/10/25 09:39:35;;;;;;;0.93;0.90;;;10.70;99.90;;;;;;5073517;28;20497;-82
2023/10/25 09:42:06;;;;;;;0.80;0.80;;;10.70;99.90;;;;;;5073215;28;20441;-82
2023/10/25 09:44:38;;;;;;;1.80;0.80;;;10.80;99.90;;;;;;5073070;28;20970;-82
2023/10/25 09:47:10;;;;;;;0.70;0.70;;;10.80;99.90;;;;;;5073223;28;20906;-83
2023/10/25 09:49:43;;;;;;;0.83;0.70;;;10.90;99.90;;;;;;5073080;28;20483;-82
2023/10/25 09:52:18;;;;;;;0.70;0.70;;;11.10;99.90;;;;;;5072972;28;20479;-82
2023/10/25 09:54:48;;;;;;;3.40;1.13;;;11.20;99.90;;;;;;5073294;28;20509;-82
2023/10/25 09:57:18;;;;;;;3.00;0.97;;;11.40;99.90;;;;;;5073438;28;20425;-82
2023/10/25 09:59:46;;;;;;;0.77;0.60;;;11.70;99.90;;;;;;5074251;28;20429;-82
2023/10/25 10:02:20;;;;;;;1.50;0.77;;;11.80;99.90;;;;;;5073295;28;20815;-82
2023/10/25 10:04:54;;;;;;;2.13;1.13;;;11.90;99.90;;;;;;5073639;28;20460;-83
2023/10/25 10:07:35;;;;;;;1.00;0.97;;;12.40;99.90;;;;;;5073060;28;20441;-82
2023/10/25 10:10:09;;;;;;;0.53;0.53;;;12.30;99.90;;;;;;5072811;28;20429;-82
2023/10/25 10:12:38;;;;;;;1.60;0.60;;;12.30;99.90;;;;;;5072736;28;20426;-82
2023/10/25 10:15:05;;;;;;;0.97;0.80;;;12.30;99.90;;;;;;5073125;28;20480;-83
2023/10/25 10:17:35;;;;;;;0.60;0.60;;;12.30;99.90;;;;;;5073021;28;20445;-82
2023/10/25 10:20:05;;;;;;;0.50;0.50;;;12.20;99.90;;;;;;5073113;28;20448;-82
2023/10/25 10:22:32;;;;;;;0.80;0.80;;;12.20;99.90;;;;;;5072588;28;20934;-82
2023/10/25 10:25:00;;;;;;;1.70;1.03;;;12.20;99.90;;;;;;5073402;28;20448;-82
2023/10/25 10:27:52;;;;;;;0.87;0.83;;;12.20;99.90;;;;;;5072522;28;20941;-82
2023/10/25 10:30:38;;;;;;;0.60;0.60;;;12.30;99.90;;;;;;5072715;28;20449;-82
2023/10/25 10:33:09;;;;;;;0.60;0.50;;;12.40;99.90;;;;;;5072771;28;20467;-82
2023/10/25 10:35:35;;;;;;;0.53;0.53;;;12.50;99.90;;;;;;5072655;28;20851;-82
2023/10/25 10:38:03;;;;;;;1.77;0.70;;;12.50;99.90;;;;;;5073015;28;20433;-81
2023/10/25 10:40:30;;;;;;;0.47;0.47;;;12.80;99.90;;;;;;5072935;28;20475;-81
2023/10/25 10:42:57;;;;;;;0.50;0.50;;;12.90;99.90;;;;;;5072473;28;20969;-81
2023/10/25 10:45:24;;;;;;;1.20;0.40;;;12.90;99.90;;;;;;5072935;28;20816;-82
2023/10/25 10:48:06;;;;;;;0.70;0.70;;;13.00;99.90;;;;;;5072674;28;20459;-82
2023/10/25 10:50:33;;;;;;;0.60;0.60;;;13.10;99.90;;;;;;5072543;28;20480;-82
2023/10/25 10:53:00;;;;;;;0.97;0.53;;;13.10;99.90;;;;;;5072793;28;20466;-82
2023/10/25 10:55:27;;;;;;;0.53;0.53;;;13.10;99.90;;;;;;5072699;28;20491;-81
2023/10/25 10:57:54;;;;;;;0.47;0.47;;;13.10;99.90;;;;;;5072789;28;20441;-82
2023/10/25 11:00:21;;;;;;;0.50;0.40;;;13.00;99.90;;;;;;5072769;28;20445;-82
2023/10/25 11:02:49;;;;;;;1.83;0.60;;;12.90;99.90;;;;;;5074588;28;20441;-82
2023/10/25 11:05:19;;;;;;;1.00;0.40;;;13.00;99.90;;;;;;5076105;28;20929;-81
2023/10/25 11:07:47;;;;;;;0.50;0.50;;;13.00;99.90;;;;;;5076387;28;20435;-82
2023/10/25 11:10:15;;;;;;;0.60;0.60;;;13.00;99.90;;;;;;5076017;28;20498;-82
2023/10/25 11:12:42;;;;;;;2.97;0.60;;;13.00;99.90;;;;;;5076182;28;20445;-82
2023/10/25 11:15:11;;;;;;;0.90;0.80;;;12.90;99.90;;;;;;5075869;28;20480;-81
2023/10/25 11:17:38;;;;;;;0.73;0.60;;;13.10;99.90;;;;;;5076160;28;20441;-79
2023/10/25 11:20:07;;;;;;;0.70;0.70;;;13.30;99.90;;;;;;5075822;28;20938;-81
2023/10/25 11:22:36;;;;;;;0.40;0.40;;;13.40;99.90;;;;;;5075637;28;20448;-81
2023/10/25 11:25:10;;;;;;;0.83;0.50;;;13.60;99.90;;;;;;5076540;28;20554;-81
2023/10/25 11:27:37;;;;;;;1.13;0.93;;;13.70;99.90;;;;;;5076058;28;20429;-82
2023/10/25 11:30:05;;;;;;;1.77;0.60;;;13.80;99.90;;;;;;5075722;28;20452;-82
2023/10/25 11:32:33;;;;;;;1.33;0.90;;;13.90;99.90;;;;;;5075975;28;20487;-82
2023/10/25 11:35:00;;;;;;;0.60;0.60;;;14.00;99.90;;;;;;5075487;28;20522;-82
2023/10/25 11:37:28;;;;;;;0.60;0.60;;;14.10;99.90;;;;;;5075534;28;20958;-82
2023/10/25 11:39:57;;;;;;;0.50;0.50;;;14.20;99.90;;;;;;5075782;28;20441;-82
2023/10/25 11:42:24;;;;;;;0.60;0.50;;;14.20;99.90;;;;;;5075757;28;20445;-83
2023/10/25 11:44:51;;;;;;;0.40;0.40;;;14.20;99.90;;;;;;5075592;28;20476;-82
2023/10/25 11:47:18;;;;;;;0.77;0.60;;;14.30;99.90;;;;;;5075710;28;20589;-81
2023/10/25 11:49:45;;;;;;;2.57;0.60;;;14.40;99.90;;;;;;5075672;28;20426;-81
2023/10/25 11:52:12;;;;;;;0.70;0.60;;;14.40;99.90;;;;;;5075180;28;20472;-82
2023/10/25 11:54:39;;;;;;;0.40;0.40;;;14.30;99.90;;;;;;5075330;28;20518;-80
2023/10/25 11:57:07;;;;;;;0.50;0.43;;;14.30;99.90;;;;;;5075516;28;20813;-82
2023/10/25 11:59:33;;;;;;;0.40;0.40;;;14.30;99.90;;;;;;5075435;28;20520;-82
2023/10/25 12:02:00;;;;;;;0.90;0.60;;;14.20;99.90;;;;;;5075404;28;20448;-82
2023/10/25 12:04:27;;;;;;;0.40;0.40;;;14.10;99.90;;;;;;5075253;28;20456;-83
2023/10/25 12:06:54;;;;;;;0.50;0.50;;;14.10;99.90;;;;;;5074941;28;20968;-83
2023/10/25 12:09:21;;;;;;;0.50;0.40;;;14.10;99.90;;;;;;5075253;28;20456;-83
2023/10/25 12:11:47;;;;;;;0.40;0.40;;;14.10;99.90;;;;;;5075194;28;20532;-82
2023/10/25 12:14:15;;;;;;;0.50;0.50;;;14.20;99.90;;;;;;5074633;28;20465;-82
2023/10/25 12:16:42;;;;;;;0.80;0.60;;;14.40;99.90;;;;;;5075121;28;20449;-82
2023/10/25 12:19:09;;;;;;;0.40;0.40;;;14.50;99.90;;;;;;5074981;28;20768;-82
2023/10/25 12:21:36;;;;;;;0.50;0.50;;;14.50;99.90;;;;;;5074731;28;20444;-82
2023/10/25 12:24:02;;;;;;;0.50;0.50;;;14.60;99.90;;;;;;5074804;28;20456;-82
2023/10/25 12:26:29;;;;;;;0.40;0.40;;;14.60;99.90;;;;;;5074918;28;20441;-82
2023/10/25 12:28:56;;;;;;;0.40;0.40;;;14.60;99.90;;;;;;5074819;28;20444;-82
2023/10/25 12:31:24;;;;;;;0.80;0.60;;;14.60;99.90;;;;;;5074782;28;20468;-83
2023/10/25 12:33:51;;;;;;;0.40;0.30;;;14.50;99.90;;;;;;5074852;28;20555;-82
2023/10/25 12:36:18;;;;;;;1.30;0.60;;;14.50;99.90;;;;;;5074312;28;20867;-82
2023/10/25 12:38:45;;;;;;;1.43;0.63;;;14.40;99.90;;;;;;5074617;28;20448;-83
2023/10/25 12:41:12;;;;;;;0.77;0.40;;;14.20;99.90;;;;;;5074581;28;20449;-82
2023/10/25 12:43:38;;;;;;;0.40;0.40;;;14.00;99.90;;;;;;5074464;28;20829;-83
2023/10/25 12:46:05;;;;;;;0.40;0.30;;;13.80;99.90;;;;;;5074208;28;20425;-83
2023/10/25 12:48:33;;;;;;;0.40;0.40;;;13.70;99.90;;;;;;5074373;28;20447;-83
2023/10/25 12:51:00;;;;;;;0.80;0.50;;;13.60;99.90;;;;;;5074000;28;20492;-83
2023/10/25 12:53:29;;;;;;;0.40;0.40;;;13.60;99.90;;;;;;5074279;28;20467;-82
2023/10/25 12:55:56;;;;;;;0.53;0.50;;;13.70;99.90;;;;;;5074223;28;20477;-81